createdAt,value
2023-04-23T00:03:34.824Z,99.90
2023-04-23T00:07:52.377Z,99.90
2023-04-23T00:12:10.538Z,99.90
2023-04-23T00:16:28.392Z,99.90
2023-04-23T00:20:45.974Z,99.90
2023-04-23T00:25:03.375Z,99.90
2023-04-23T00:29:20.937Z,99.90
2023-04-23T00:33:38.644Z,99.90
2023-04-23T00:37:55.916Z,99.90
2023-04-23T00:42:13.904Z,99.90
2023-04-23T00:46:31.159Z,99.90
2023-04-23T00:50:48.465Z,99.90
2023-04-23T00:55:06.455Z,99.90
2023-04-23T00:59:25.638Z,99.90
2023-04-23T01:03:43.426Z,99.90
2023-04-23T01:08:00.991Z,99.90
2023-04-23T01:12:19.308Z,99.90
2023-04-23T01:16:38.699Z,99.90
2023-04-23T01:20:56.253Z,99.90
2023-04-23T01:25:13.974Z,99.90
2023-04-23T01:29:32.330Z,99.90
2023-04-23T01:33:52.172Z,99.90
2023-04-23T01:38:11.497Z,99.90
2023-04-23T01:42:28.846Z,99.90
2023-04-23T01:46:46.749Z,99.90
2023-04-23T01:51:04.510Z,99.90
2023-04-23T01:55:22.102Z,99.90
2023-04-23T01:59:40.465Z,99.90
2023-04-23T02:03:59.220Z,99.90
2023-04-23T02:08:16.773Z,99.90
2023-04-23T02:12:34.419Z,99.90
2023-04-23T02:16:51.842Z,99.90
2023-04-23T02:21:09.402Z,99.90
2023-04-23T02:25:26.639Z,99.90
2023-04-23T02:29:44.039Z,99.90
2023-04-23T02:34:01.588Z,99.90
2023-04-23T02:38:18.916Z,99.90
2023-04-23T02:42:36.233Z,99.90
2023-04-23T02:46:54.033Z,99.90
2023-04-23T02:51:13.767Z,99.90
2023-04-23T02:55:32.152Z,99.90
2023-04-23T02:59:50.529Z,99.90
2023-04-23T03:04:08.350Z,99.90
2023-04-23T03:08:25.737Z,99.90
2023-04-23T03:12:43.011Z,99.90
2023-04-23T03:17:00.635Z,99.90
2023-04-23T03:21:17.977Z,99.90
2023-04-23T03:25:35.417Z,99.90
2023-04-23T03:29:52.808Z,99.90
2023-04-23T03:34:10.243Z,99.90
2023-04-23T03:38:27.569Z,99.90
2023-04-23T03:42:44.907Z,99.90
2023-04-23T03:47:02.133Z,99.90
2023-04-23T03:51:19.782Z,99.90
2023-04-23T03:55:37.140Z,99.90
2023-04-23T03:59:54.380Z,99.90
2023-04-23T04:04:12.071Z,99.90
2023-04-23T04:08:30.031Z,99.90
2023-04-23T04:12:48.276Z,99.90
2023-04-23T04:17:06.015Z,99.90
2023-04-23T04:21:23.273Z,99.90
2023-04-23T04:25:40.895Z,99.90
2023-04-23T04:29:58.353Z,99.90
2023-04-23T04:34:15.807Z,99.90
2023-04-23T04:38:33.388Z,99.90
2023-04-23T04:42:51.577Z,99.90
2023-04-23T04:47:09.025Z,99.90
2023-04-23T04:51:27.107Z,99.90
2023-04-23T04:55:44.416Z,99.90
2023-04-23T05:00:05.166Z,99.90
2023-04-23T05:04:22.414Z,99.90
2023-04-23T05:08:39.909Z,99.90
2023-04-23T05:12:57.858Z,99.90
2023-04-23T05:17:15.168Z,99.90
2023-04-23T05:21:32.517Z,99.90
2023-04-23T05:25:54.227Z,99.90
2023-04-23T05:30:11.934Z,99.90
2023-04-23T05:34:29.122Z,99.90
2023-04-23T05:38:47.285Z,99.90
2023-04-23T05:43:04.493Z,99.90
2023-04-23T05:47:21.882Z,99.90
2023-04-23T05:51:40.797Z,99.90
2023-04-23T05:55:58.444Z,99.90
2023-04-23T06:00:17.124Z,99.90
2023-04-23T06:04:41.061Z,99.90
2023-04-23T06:08:58.874Z,99.90
2023-04-23T06:13:17.429Z,99.90
2023-04-23T06:17:36.030Z,99.90
2023-04-23T06:21:53.720Z,99.90
2023-04-23T06:26:11.088Z,99.90
2023-04-23T06:30:28.363Z,99.90
2023-04-23T06:34:59.593Z,99.90
2023-04-23T06:39:18.512Z,99.90
2023-04-23T06:43:35.825Z,99.90
2023-04-23T06:47:53.431Z,99.90
2023-04-23T06:52:11.116Z,99.90
2023-04-23T06:56:28.395Z,99.90
2023-04-23T07:00:47.288Z,99.90
2023-04-23T07:05:04.860Z,99.90
2023-04-23T07:09:23.366Z,99.90
2023-04-23T07:13:40.951Z,99.90
2023-04-23T07:17:58.869Z,99.90
2023-04-23T07:22:16.729Z,99.90
2023-04-23T07:26:35.211Z,99.90
2023-04-23T07:30:52.412Z,99.90
2023-04-23T07:35:10.585Z,99.90
2023-04-23T07:39:28.338Z,99.90
2023-04-23T07:43:45.840Z,99.90
2023-04-23T07:48:03.365Z,99.90
2023-04-23T07:52:20.931Z,99.90
2023-04-23T07:56:39.282Z,99.90
2023-04-23T08:00:57.132Z,99.90
2023-04-23T08:05:14.558Z,99.90
2023-04-23T08:09:31.966Z,99.90
2023-04-23T08:13:49.395Z,99.90
2023-04-23T08:18:06.801Z,99.90
2023-04-23T08:22:24.110Z,99.90
2023-04-23T08:26:41.389Z,99.90
2023-04-23T08:30:59.174Z,99.90
2023-04-23T08:35:17.829Z,99.90
2023-04-23T08:39:36.144Z,99.90
2023-04-23T08:44:19.903Z,99.90
2023-04-23T08:48:38.035Z,99.90
2023-04-23T08:52:57.876Z,99.90
2023-04-23T08:57:17.692Z,99.90
2023-04-23T09:01:36.088Z,99.90
2023-04-23T09:05:53.812Z,99.90
2023-04-23T09:10:13.680Z,99.90
2023-04-23T09:14:32.117Z,99.90
2023-04-23T09:18:51.557Z,99.90
2023-04-23T09:23:09.263Z,99.90
2023-04-23T09:27:26.932Z,99.90
2023-04-23T09:31:48.081Z,99.90
2023-04-23T09:36:15.259Z,99.90
2023-04-23T09:40:32.566Z,99.90
2023-04-23T09:45:05.956Z,99.90
2023-04-23T09:49:24.618Z,99.90
2023-04-23T09:53:43.684Z,99.90
2023-04-23T09:58:03.389Z,99.90
2023-04-23T10:02:29.174Z,99.90
2023-04-23T10:06:57.982Z,99.90
2023-04-23T10:11:26.932Z,99.90
2023-04-23T10:15:46.938Z,99.90
2023-04-23T10:20:07.010Z,99.90
2023-04-23T10:24:25.308Z,99.90
2023-04-23T10:28:47.073Z,99.90
2023-04-23T10:33:06.147Z,99.90
2023-04-23T10:37:31.156Z,99.90
2023-04-23T10:41:49.480Z,99.90
2023-04-23T10:46:30.586Z,99.90
2023-04-23T10:55:23.943Z,99.90
2023-04-23T10:59:52.213Z,99.90
2023-04-23T11:04:23.418Z,99.90
2023-04-23T11:08:54.671Z,99.90
2023-04-23T11:13:24.812Z,99.90
2023-04-23T11:17:44.829Z,99.90
2023-04-23T11:22:03.302Z,99.90
2023-04-23T11:26:22.171Z,99.90
2023-04-23T11:30:39.796Z,99.90
2023-04-23T11:35:00.405Z,99.30
2023-04-23T11:39:19.832Z,99.90
2023-04-23T11:43:37.030Z,99.90
2023-04-23T11:47:59.326Z,99.90
2023-04-23T11:52:17.138Z,99.90
2023-04-23T11:56:35.554Z,99.90
2023-04-23T12:00:59.346Z,99.90
2023-04-23T12:05:20.217Z,99.90
2023-04-23T12:09:38.353Z,99.90
2023-04-23T12:13:58.168Z,99.90
2023-04-23T12:18:15.648Z,99.90
2023-04-23T12:22:32.905Z,99.90
2023-04-23T12:26:54.824Z,99.90
2023-04-23T12:31:22.856Z,96.40
2023-04-23T12:35:51.553Z,93.00
2023-04-23T12:40:09.288Z,91.40
2023-04-23T12:44:26.849Z,88.60
2023-04-23T12:48:44.225Z,90.70
2023-04-23T12:53:01.928Z,85.80
2023-04-23T12:57:23.365Z,83.00
2023-04-23T13:01:42.392Z,83.40
2023-04-23T13:05:59.596Z,82.60
2023-04-23T13:10:19.376Z,79.30
2023-04-23T13:14:37.536Z,77.80
2023-04-23T13:18:55.047Z,73.90
2023-04-23T13:23:13.490Z,73.70
2023-04-23T13:27:31.986Z,75.70
2023-04-23T13:31:49.508Z,78.70
2023-04-23T13:36:07.488Z,75.50
2023-04-23T13:40:24.788Z,71.00
2023-04-23T13:44:42.299Z,69.20
2023-04-23T13:49:01.159Z,76.90
2023-04-23T13:53:18.477Z,74.70
2023-04-23T13:57:36.023Z,72.90
2023-04-23T14:01:54.171Z,71.90
2023-04-23T14:06:11.517Z,69.90
2023-04-23T14:10:30.063Z,74.60
2023-04-23T14:14:47.432Z,76.50
2023-04-23T14:19:05.057Z,73.00
2023-04-23T14:23:22.313Z,79.60
2023-04-23T14:27:45.296Z,74.60
2023-04-23T14:32:02.699Z,72.70
2023-04-23T14:36:20.710Z,76.80
2023-04-23T14:40:38.567Z,76.50
2023-04-23T14:45:00.595Z,78.50
2023-04-23T14:49:20.920Z,75.60
2023-04-23T14:53:38.117Z,72.30
2023-04-23T14:57:55.446Z,69.90
2023-04-23T15:02:12.740Z,74.90
2023-04-23T15:06:30.324Z,75.80
2023-04-23T15:10:47.969Z,80.30
2023-04-23T15:15:06.313Z,73.90
2023-04-23T15:19:24.060Z,75.50
2023-04-23T15:23:42.353Z,73.00
2023-04-23T15:28:00.970Z,77.50
2023-04-23T15:32:18.307Z,79.40
2023-04-23T15:36:35.951Z,80.10
2023-04-23T15:40:55.428Z,81.70
2023-04-23T15:45:13.377Z,87.50
2023-04-23T15:49:30.698Z,87.30
2023-04-23T15:53:48.007Z,90.60
2023-04-23T15:58:05.878Z,91.80
2023-04-23T16:02:23.221Z,90.00
2023-04-23T16:06:41.055Z,88.20
2023-04-23T16:10:59.395Z,88.20
2023-04-23T16:15:16.934Z,83.50
2023-04-23T16:19:34.381Z,86.60
2023-04-23T16:23:52.106Z,88.50
2023-04-23T16:28:09.487Z,90.60
2023-04-23T16:32:30.014Z,89.10
2023-04-23T16:36:47.349Z,92.30
2023-04-23T16:41:05.951Z,95.00
2023-04-23T16:45:23.337Z,95.90
2023-04-23T16:49:41.146Z,97.80
2023-04-23T16:53:58.740Z,99.90
2023-04-23T16:58:17.877Z,99.90
2023-04-23T17:02:37.120Z,99.90
2023-04-23T17:06:54.510Z,99.90
2023-04-23T17:11:11.977Z,99.90
2023-04-23T17:15:29.409Z,99.90
2023-04-23T17:19:46.841Z,99.90
2023-04-23T17:24:04.658Z,99.90
2023-04-23T17:28:22.530Z,99.90
2023-04-23T17:32:39.815Z,99.90
2023-04-23T17:36:57.136Z,99.90
2023-04-23T17:41:14.771Z,99.90
2023-04-23T17:45:33.247Z,99.90
2023-04-23T17:49:51.084Z,99.90
2023-04-23T17:54:08.435Z,99.90
2023-04-23T17:58:26.844Z,99.90
2023-04-23T18:02:45.266Z,99.90
2023-04-23T18:07:02.659Z,99.90
2023-04-23T18:11:20.006Z,99.90
2023-04-23T18:15:40.909Z,99.90
2023-04-23T18:19:58.898Z,99.90
2023-04-23T18:24:18.394Z,99.90
2023-04-23T18:28:37.177Z,99.90
2023-04-23T18:32:59.525Z,99.90
2023-04-23T18:37:31.199Z,99.90
2023-04-23T18:41:49.246Z,99.90
2023-04-23T18:46:06.944Z,99.90
2023-04-23T18:50:48.451Z,99.90
2023-04-23T18:55:06.713Z,99.90
2023-04-23T18:59:24.962Z,99.90
2023-04-23T19:03:42.914Z,99.90
2023-04-23T19:08:00.880Z,99.90
2023-04-23T19:12:18.238Z,99.90
2023-04-23T19:16:36.153Z,99.90
2023-04-23T19:20:53.471Z,99.90
2023-04-23T19:25:10.776Z,99.90
2023-04-23T19:29:28.124Z,99.90
2023-04-23T19:33:46.329Z,99.90
2023-04-23T19:38:04.654Z,99.90
2023-04-23T19:42:21.958Z,99.90
2023-04-23T19:46:39.266Z,99.90
2023-04-23T19:50:56.635Z,99.90
2023-04-23T19:55:14.197Z,99.90
2023-04-23T19:59:31.677Z,99.90
2023-04-23T20:03:50.857Z,99.90
2023-04-23T20:08:15.176Z,99.90
2023-04-23T20:12:33.403Z,99.90
2023-04-23T20:16:50.626Z,99.90
2023-04-23T20:21:09.295Z,99.90
2023-04-23T20:25:26.969Z,99.90
2023-04-23T20:29:44.477Z,99.90
2023-04-23T20:34:02.867Z,99.90
2023-04-23T20:38:20.202Z,99.90
2023-04-23T20:42:39.402Z,99.90
2023-04-23T20:46:58.014Z,99.90
2023-04-23T20:51:15.844Z,99.90
2023-04-23T20:55:33.080Z,99.90
2023-04-23T20:59:50.540Z,99.90
2023-04-23T21:04:08.028Z,99.90
2023-04-23T21:08:25.551Z,99.90
2023-04-23T21:12:43.512Z,99.90
2023-04-23T21:17:01.059Z,99.90
2023-04-23T21:21:18.295Z,99.90
2023-04-23T21:25:36.384Z,99.90
2023-04-23T21:29:53.966Z,99.90
2023-04-23T21:34:11.444Z,99.90
2023-04-23T21:38:28.726Z,99.90
2023-04-23T21:42:47.594Z,99.90
2023-04-23T21:47:04.942Z,99.90
2023-04-23T21:51:23.086Z,99.90
2023-04-23T21:55:40.521Z,99.90
2023-04-23T21:59:58.078Z,99.90
2023-04-23T22:04:16.190Z,99.90
2023-04-23T22:08:33.565Z,99.90
2023-04-23T22:12:52.125Z,99.90
2023-04-23T22:17:10.165Z,99.90
2023-04-23T22:21:28.466Z,99.90
2023-04-23T22:25:45.779Z,99.90
2023-04-23T22:30:06.240Z,99.90
2023-04-23T22:34:24.983Z,99.90
2023-04-23T22:38:42.291Z,99.90
2023-04-23T22:43:00.687Z,99.90
2023-04-23T22:47:18.085Z,99.90
2023-04-23T22:51:36.065Z,99.90
2023-04-23T22:55:53.389Z,99.90
2023-04-23T23:00:11.637Z,99.90
2023-04-23T23:04:29.264Z,99.90
2023-04-23T23:08:49.586Z,99.90
2023-04-23T23:13:08.817Z,99.90
2023-04-23T23:17:26.183Z,99.90
2023-04-23T23:21:43.557Z,99.90
2023-04-23T23:26:01.176Z,99.90
2023-04-23T23:30:18.560Z,99.90
2023-04-23T23:34:35.798Z,99.90
2023-04-23T23:38:53.410Z,99.90
2023-04-23T23:43:11.145Z,99.90
2023-04-23T23:47:28.419Z,99.90
2023-04-23T23:51:46.477Z,99.90
2023-04-23T23:56:04.169Z,99.90
